Estación municipal de Seva (Osona, P.N. del Montseny)

Consulta los datos en tiempo real de la estación municipal de Seva





Hora UTC 09:00
Temperatura 17.7 ºC
Suelo 15 cm 23.6 ºC
Humedad 69.4 %
Presión 1014.8 hPa
Pluja 0.0 mm
Velocidad viento 3.8 km/h
Dirección viento WSW
Radiación solar 425.9 W/m²

Webcam

Datos diarios 2026-05-04



Hora UTC (invierno +1h; verano +2h)
Temperatura (ºC) Humedad (%) Presión (hPa) Velocidad viento (km/h) Precipitación (mm) Radiación solar (W/m²)
Hora UTC Aire Suelo 15 cm Humedad Presión Vel. Dir. Vel. Max Dir. Intent. máx 5 min. Rad. Sol.
00:05 11.8 11.5 96.3 1016.3 0.8 WSW 0.8 SW 0.0 0.1
00:10 11.8 11.4 96.3 1016.2 0.4 SSW 2.5 S 0.0 0.1
00:15 11.7 11.2 96.3 1016.2 1.2 SSW 2.5 SSW 0.0 0.1
00:20 11.7 11.2 96.4 1016.2 0.7 SSW 2.8 SW 0.0 0.1
00:25 11.8 11.3 96.4 1016.2 0.2 SW 1.8 WSW 0.0 0.1
00:30 11.8 11.4 96.3 1016.2 2.9 WSW 4.2 WSW 0.0 0.1
00:35 11.8 11.4 96.2 1016.2 2.5 WSW 4.2 WSW 0.0 0.0
00:40 11.7 11.3 96.1 1016.3 2.7 SSW 4.6 SW 0.0 0.0
00:45 11.8 11.3 96.1 1016.3 1.6 SSW 3.9 S 0.0 0.1
00:50 11.8 11.3 96.1 1016.2 0.6 SW 2.1 WSW 0.0 0.1
00:55 11.8 11.4 96.2 1016.2 1.4 SW 2.8 SW 0.0 0.1
01:00 11.8 11.4 96.1 1016.2 1.1 SW 2.5 WSW 0.0 0.0
01:05 11.8 11.4 96.1 1016.1 0.2 E 2.5 E 0.0 0.0
01:10 11.7 11.2 95.9 1015.9 2.8 E 4.6 E 0.0 0.1
01:15 11.7 11.0 95.8 1015.8 0.9 ENE 3.2 ESE 0.0 0.1
01:20 11.6 10.7 95.8 1015.8 0.0 NNE 0.0 NE 0.0 0.1
01:25 11.6 10.6 96.0 1015.9 1.1 WSW 2.8 WSW 0.0 0.1
01:30 11.6 10.7 96.2 1015.9 2.0 SSW 4.2 SSE 0.0 0.1
01:35 11.6 10.7 96.3 1015.9 1.3 S 3.5 S 0.0 0.0
01:40 11.6 10.8 96.4 1015.8 2.9 W 4.9 WNW 0.0 0.1
01:45 11.6 10.9 96.4 1015.9 1.4 SSW 3.5 S 0.0 0.1
01:50 11.6 11.0 96.4 1015.8 1.1 SSE 2.8 SSE 0.0 0.0
01:55 11.6 11.0 96.5 1015.8 0.0 SW 1.1 SW 0.0 0.1
02:00 11.7 11.0 96.5 1015.7 0.1 WSW 1.4 WSW 0.0 0.1
02:05 11.7 11.1 96.5 1015.7 1.4 WSW 2.8 W 0.0 0.0
02:10 11.8 11.2 96.5 1015.6 2.0 WNW 2.8 NNW 0.0 0.1
02:15 11.7 11.2 96.3 1015.6 1.8 NNW 3.2 NNW 0.0 0.0
02:20 11.7 11.2 96.3 1015.6 1.2 N 2.5 N 0.0 0.1
02:25 11.7 11.2 96.4 1015.6 0.1 ENE 1.4 ENE 0.0 0.1
02:30 11.7 11.2 96.4 1015.6 1.3 SSE 3.5 SE 0.0 0.1
02:35 11.7 11.2 96.3 1015.6 3.0 ESE 3.9 SE 0.0 0.1
02:40 11.7 11.2 96.2 1015.5 2.9 ESE 4.2 ESE 0.0 0.1
02:45 11.8 11.3 96.1 1015.4 2.9 E 4.6 E 0.0 0.1
02:50 11.8 11.3 95.9 1015.4 2.5 ESE 4.9 E 0.0 0.0
02:55 11.9 11.3 95.8 1015.4 0.6 SW 2.5 S 0.0 0.0
03:00 12.0 11.4 95.6 1015.4 1.5 WSW 3.2 WSW 0.0 0.1
03:05 12.0 11.5 95.3 1015.5 1.9 WSW 4.6 WSW 0.0 0.0
03:10 12.0 11.5 95.0 1015.5 0.9 WSW 2.5 WSW 0.0 0.1
03:15 12.0 11.5 94.9 1015.5 1.0 SSW 4.2 SSW 0.0 0.1
03:20 12.1 11.6 94.8 1015.6 1.0 S 3.5 SSW 0.0 0.1
03:25 12.1 11.6 94.7 1015.5 2.3 ESE 4.6 E 0.0 0.1
03:30 12.1 11.6 94.6 1015.3 4.2 E 7.8 ESE 0.0 0.0
03:35 12.2 11.6 94.4 1015.3 1.7 ESE 4.9 ESE 0.0 0.1
03:40 12.2 11.6 94.2 1015.3 0.0 NNE 0.0 ESE 0.0 0.1
03:45 12.3 11.6 94.2 1015.3 0.3 NNW 1.8 NNW 0.0 0.1
03:50 12.2 11.6 94.1 1015.2 0.1 NNW 1.4 NNW 0.0 0.0
03:55 12.2 11.6 94.3 1015.2 1.2 W 3.2 W 0.0 0.1
04:00 12.2 11.6 94.4 1015.3 4.1 WSW 6.7 WSW 0.0 0.1
04:05 12.1 11.4 94.5 1015.2 4.2 WSW 6.0 SW 0.0 0.0
04:10 11.9 11.2 94.8 1015.2 1.4 SW 5.6 WSW 0.0 0.0
04:15 11.8 10.9 95.2 1015.2 1.6 SSW 3.5 SSE 0.0 0.1
04:20 11.7 10.7 95.5 1015.2 1.1 S 3.2 SSE 0.0 0.1
04:25 11.6 10.6 95.8 1015.2 0.1 N 1.4 N 0.0 0.1
04:30 11.6 10.7 96.0 1015.1 0.1 NNW 1.4 NNW 0.0 0.1
04:35 11.6 10.7 96.1 1015.1 0.6 E 2.1 E 0.0 0.3
04:40 11.6 10.7 96.3 1015.1 0.6 E 2.1 E 0.0 0.8
04:45 11.5 10.6 96.3 1015.1 0.5 NW 2.8 NW 0.0 1.8
04:50 11.5 10.6 96.5 1015.1 2.7 WNW 3.2 NW 0.0 2.4
04:55 11.5 10.7 96.7 1015.1 0.6 WNW 2.1 WNW 0.0 2.9
05:00 11.5 10.8 96.9 1015.1 0.9 WNW 1.8 WNW 0.0 4.4
05:05 11.5 10.9 96.9 1015.2 0.4 SSE 2.1 SSE 0.0 5.0
05:10 11.5 10.9 96.9 1015.2 2.0 SE 3.2 SE 0.0 5.4
05:15 11.6 11.0 96.9 1015.2 0.7 SSE 2.8 SE 0.0 6.8
05:20 11.6 11.1 96.9 1015.1 1.2 ESE 2.8 ESE 0.0 10.6
05:25 11.7 11.1 96.9 1015.1 2.4 ESE 3.2 SE 0.0 15.0
05:30 11.7 11.2 96.8 1015.1 2.3 ESE 3.2 ESE 0.0 18.2
05:35 11.8 11.3 96.7 1015.2 0.0 ESE 1.1 ESE 0.0 18.0
05:40 11.8 11.5 96.6 1015.2 0.0 NNE 0.0 E 0.0 29.1
05:45 11.9 11.7 96.4 1015.2 0.0 NNE 0.0 E 0.0 33.7
05:50 12.0 11.9 96.2 1015.2 0.0 WSW 1.1 WSW 0.0 38.0
05:55 12.1 12.1 95.5 1015.2 0.3 WSW 1.8 W 0.0 42.0
06:00 12.3 12.3 94.7 1015.1 0.5 W 1.8 W 0.0 52.5
06:05 12.4 12.5 94.1 1015.1 0.1 SW 1.4 WSW 0.0 60.0
06:10 12.4 12.8 93.1 1015.2 0.0 NW 1.8 NW 0.0 66.5
06:15 12.6 13.0 92.6 1015.2 1.6 NNW 3.2 NNW 0.0 74.6
06:20 12.8 13.2 92.9 1015.2 0.6 NNW 2.5 N 0.0 95.1
06:25 12.8 13.4 92.7 1015.3 4.6 NNW 6.4 NNW 0.0 110.2
06:30 12.7 13.6 93.1 1015.3 3.9 NW 6.0 N 0.0 122.3
06:35 12.7 13.7 93.3 1015.3 5.5 NNW 7.8 NNW 0.0 89.3
06:40 12.6 13.6 93.7 1015.3 6.5 NNW 8.5 NNW 0.0 134.8
06:45 12.7 13.8 93.9 1015.3 4.9 N 7.8 N 0.0 154.2
06:50 13.0 14.6 93.3 1015.3 6.6 N 10.2 NNW 0.0 243.9
06:55 13.2 15.4 91.1 1015.3 7.0 NNW 9.2 N 0.0 175.3
07:00 13.4 15.3 90.1 1015.3 5.3 N 8.8 N 0.0 175.5
07:05 13.6 15.5 89.3 1015.4 5.1 NNE 9.2 NNW 0.0 204.7
07:10 13.8 15.7 87.7 1015.4 3.5 NNE 6.7 NNE 0.0 235.3
07:15 14.1 16.8 85.7 1015.3 3.2 N 5.6 NNE 0.0 338.6
07:20 14.5 17.6 83.8 1015.3 6.1 E 10.2 ENE 0.0 276.5
07:25 14.9 18.4 82.6 1015.2 4.2 ENE 8.5 ENE 0.0 505.5
07:30 15.6 21.0 78.5 1015.2 4.4 E 8.8 E 0.0 578.3
07:35 16.3 22.5 75.8 1015.2 2.6 NE 6.4 E 0.0 491.5
07:40 16.9 23.7 71.4 1015.2 3.6 NNE 6.4 NE 0.0 469.3
07:45 16.7 23.6 71.2 1015.1 3.0 NNW 6.4 N 0.0 477.6
07:50 17.0 23.9 71.7 1015.1 3.1 N 6.4 NNW 0.0 487.3
07:55 17.1 24.5 71.9 1015.1 5.1 N 8.8 NNW 0.0 519.7
08:00 17.0 24.7 72.5 1015.0 6.7 NNW 11.3 NNW 0.0 573.7
08:05 16.8 24.4 73.7 1015.0 5.1 N 10.6 N 0.0 370.6
08:10 16.8 22.7 73.9 1015.0 3.8 N 7.1 0.0 262.0
08:15 16.7 22.2 74.4 1014.9 5.6 NNW 7.8 N 0.0 609.1
08:20 17.1 24.3 72.4 1014.8 4.4 N 7.8 NNW 0.0 683.2
08:25 17.6 25.9 68.0 1014.8 1.5 NNE 4.2 NNE 0.0 662.1
08:30 18.3 26.4 65.3 1014.8 2.7 SSE 6.7 S 0.0 602.6
08:35 18.3 25.4 66.1 1014.8 1.9 S 6.4 SSW 0.0 642.3
08:40 18.7 26.8 65.5 1014.9 6.8 WSW 13.1 W 0.0 658.8
08:45 18.1 26.3 66.8 1014.9 8.7 W 15.5 WNW 0.0 445.7
08:50 17.7 25.1 68.3 1014.9 6.1 W 18.4 W 0.0 437.7
08:55 17.9 24.4 67.9 1014.8 5.7 W 9.9 WNW 0.0 394.9
09:00 17.7 23.6 69.4 1014.8 3.8 WSW 9.0 WNW 0.0 425.9
Máxima 18.7 26.8 96.9 1016.3 8.7 W 18.4 W 0.0 683.2
Mínima 11.5 10.6 65.3 1014.8
Total 0.0